createdAt,value
2023-04-11T00:01:29.727Z,15.80
2023-04-11T00:04:00.842Z,16.67
2023-04-11T00:06:31.183Z,17.23
2023-04-11T00:09:01.162Z,17.40
2023-04-11T00:11:32.158Z,16.15
2023-04-11T00:14:01.191Z,16.17
2023-04-11T00:16:30.303Z,17.75
2023-04-11T00:19:00.681Z,17.67
2023-04-11T00:21:29.857Z,17.77
2023-04-11T00:23:58.822Z,16.90
2023-04-11T00:26:27.895Z,17.45
2023-04-11T00:28:57.072Z,17.08
2023-04-11T00:31:26.120Z,18.85
2023-04-11T00:33:55.292Z,17.60
2023-04-11T00:36:27.062Z,18.95
2023-04-11T00:38:58.547Z,17.95
2023-04-11T00:41:27.816Z,16.80
2023-04-11T00:43:57.795Z,17.05
2023-04-11T00:46:27.984Z,17.15
2023-04-11T00:48:57.841Z,16.25
2023-04-11T00:51:29.323Z,16.27
2023-04-11T00:53:58.453Z,17.25
2023-04-11T00:56:27.516Z,16.88
2023-04-11T00:58:57.414Z,17.73
2023-04-11T01:01:26.583Z,17.75
2023-04-11T01:03:55.774Z,16.77
2023-04-11T01:06:26.489Z,17.60
2023-04-11T01:08:57.162Z,18.17
2023-04-11T01:11:27.670Z,18.60
2023-04-11T01:13:57.560Z,19.00
2023-04-11T01:16:26.873Z,18.08
2023-04-11T01:18:56.403Z,17.80
2023-04-11T01:21:27.132Z,18.40
2023-04-11T01:23:58.472Z,17.23
2023-04-11T01:26:27.624Z,16.52
2023-04-11T01:28:56.911Z,17.60
2023-04-11T01:31:26.120Z,16.73
2023-04-11T01:33:55.261Z,17.92
2023-04-11T01:36:24.358Z,16.88
2023-04-11T01:38:53.504Z,16.35
2023-04-11T01:41:26.560Z,15.60
2023-04-11T01:43:55.713Z,16.98
2023-04-11T01:46:26.953Z,16.83
2023-04-11T01:48:59.950Z,16.60
2023-04-11T01:51:29.108Z,17.48
2023-04-11T01:53:58.093Z,17.05
2023-04-11T01:56:28.774Z,16.88
2023-04-11T01:58:59.215Z,17.25
2023-04-11T02:01:29.339Z,17.73
2023-04-11T02:04:00.013Z,18.90
2023-04-11T02:06:29.260Z,17.55
2023-04-11T02:08:58.264Z,17.55
2023-04-11T02:11:28.841Z,18.30
2023-04-11T02:13:57.934Z,17.38
2023-04-11T02:16:30.202Z,17.65
2023-04-11T02:18:59.288Z,18.45
2023-04-11T02:21:28.422Z,17.20
2023-04-11T02:24:00.856Z,17.98
2023-04-11T02:26:31.320Z,15.95
2023-04-11T02:29:00.766Z,16.77
2023-04-11T02:31:29.876Z,15.77
2023-04-11T02:33:59.028Z,17.08
2023-04-11T02:36:28.563Z,17.27
2023-04-11T02:38:57.659Z,17.17
2023-04-11T02:41:30.858Z,17.80
2023-04-11T02:43:59.936Z,17.38
2023-04-11T02:46:28.980Z,17.98
2023-04-11T02:48:58.299Z,18.73
2023-04-11T02:51:28.533Z,18.00
2023-04-11T02:53:57.643Z,16.90
2023-04-11T02:56:27.181Z,17.92
2023-04-11T02:59:00.292Z,17.27
2023-04-11T03:01:30.890Z,18.10
2023-04-11T03:04:00.209Z,19.48
2023-04-11T03:06:39.308Z,17.52
2023-04-11T03:09:08.357Z,17.67
2023-04-11T03:11:37.364Z,18.27
2023-04-11T03:14:08.451Z,16.80
2023-04-11T03:16:37.614Z,15.90
2023-04-11T03:19:06.998Z,16.70
2023-04-11T03:21:36.241Z,16.15
2023-04-11T03:24:07.542Z,16.98
2023-04-11T03:26:36.598Z,15.70
2023-04-11T03:29:13.133Z,17.45
2023-04-11T03:32:02.499Z,17.83
2023-04-11T03:34:35.728Z,19.20
2023-04-11T03:37:07.342Z,17.65
2023-04-11T03:39:38.566Z,18.58
2023-04-11T03:42:07.834Z,19.20
2023-04-11T03:44:38.974Z,19.50
2023-04-11T03:47:07.975Z,18.48
2023-04-11T03:49:41.987Z,18.35
2023-04-11T03:52:12.690Z,17.30
2023-04-11T03:54:42.120Z,16.40
2023-04-11T03:57:12.714Z,17.88
2023-04-11T03:59:43.108Z,16.17
2023-04-11T04:02:15.977Z,16.67
2023-04-11T04:04:55.165Z,17.70
2023-04-11T04:07:28.450Z,17.90
2023-04-11T04:10:08.917Z,16.63
2023-04-11T04:12:40.887Z,16.95
2023-04-11T04:15:19.506Z,17.13
2023-04-11T04:17:50.707Z,16.60
2023-04-11T04:20:27.043Z,16.07
2023-04-11T04:23:00.223Z,15.25
2023-04-11T04:25:42.348Z,15.00
2023-04-11T04:28:12.924Z,16.70
2023-04-11T04:30:44.178Z,15.95
2023-04-11T04:33:14.757Z,18.42
2023-04-11T04:35:48.641Z,17.98
2023-04-11T04:38:19.463Z,17.45
2023-04-11T04:40:54.860Z,17.85
2023-04-11T04:43:27.382Z,15.98
2023-04-11T04:46:16.296Z,16.17
2023-04-11T04:48:51.133Z,17.60
2023-04-11T04:51:20.263Z,17.10
2023-04-11T04:53:49.267Z,15.60
2023-04-11T04:56:18.338Z,17.10
2023-04-11T04:58:49.492Z,15.88
2023-04-11T05:01:22.521Z,16.45
2023-04-11T05:04:00.109Z,17.23
2023-04-11T05:06:47.963Z,17.83
2023-04-11T05:09:18.287Z,18.75
2023-04-11T05:11:47.696Z,17.52
2023-04-11T05:14:17.318Z,16.42
2023-04-11T05:16:48.874Z,17.45
2023-04-11T05:19:17.971Z,17.25
2023-04-11T05:21:50.094Z,16.92
2023-04-11T05:24:19.284Z,16.55
2023-04-11T05:26:48.438Z,16.38
2023-04-11T05:29:22.157Z,17.30
2023-04-11T05:31:53.123Z,18.85
2023-04-11T05:34:22.644Z,18.67
2023-04-11T05:36:52.165Z,16.65
2023-04-11T05:39:22.755Z,17.88
2023-04-11T05:41:52.058Z,15.52
2023-04-11T05:44:21.310Z,15.30
2023-04-11T05:46:50.321Z,15.15
2023-04-11T05:49:20.834Z,15.88
2023-04-11T05:51:49.959Z,15.80
2023-04-11T05:54:33.866Z,16.17
2023-04-11T05:57:03.310Z,15.70
2023-04-11T05:59:33.003Z,15.88
2023-04-11T06:02:02.084Z,16.33
2023-04-11T06:04:32.736Z,15.85
2023-04-11T06:07:02.615Z,15.25
2023-04-11T06:09:33.933Z,16.30
2023-04-11T06:12:03.548Z,16.10
2023-04-11T06:14:32.552Z,15.80
2023-04-11T06:17:01.640Z,15.63
2023-04-11T06:19:32.027Z,14.20
2023-04-11T06:22:01.053Z,15.10
2023-04-11T06:24:37.678Z,15.10
2023-04-11T06:27:10.107Z,14.57
2023-04-11T06:29:39.640Z,15.20
2023-04-11T06:32:09.146Z,14.80
2023-04-11T06:34:40.005Z,14.38
2023-04-11T06:37:09.905Z,14.30
2023-04-11T06:39:39.092Z,14.35
2023-04-11T06:42:08.158Z,14.35
2023-04-11T06:44:37.316Z,12.98
2023-04-11T06:47:06.876Z,14.30
2023-04-11T06:49:35.878Z,14.05
2023-04-11T06:52:06.356Z,14.00
2023-04-11T06:54:35.450Z,13.98
2023-04-11T06:57:04.564Z,13.85
2023-04-11T06:59:34.900Z,13.98
2023-04-11T07:02:04.123Z,13.73
2023-04-11T07:04:34.193Z,14.60
2023-04-11T07:07:03.681Z,13.02
2023-04-11T07:09:34.337Z,14.00
2023-04-11T07:12:03.345Z,13.50
2023-04-11T07:14:32.966Z,13.90
2023-04-11T07:17:03.381Z,13.00
2023-04-11T07:19:35.327Z,12.77
2023-04-11T07:22:05.592Z,14.23
2023-04-11T07:24:36.327Z,11.90
2023-04-11T07:27:06.901Z,11.77
2023-04-11T07:29:35.916Z,11.60
2023-04-11T07:32:05.133Z,12.30
2023-04-11T07:34:34.137Z,12.13
2023-04-11T07:37:03.725Z,12.25
2023-04-11T07:39:33.577Z,11.73
2023-04-11T07:42:04.030Z,11.13
2023-04-11T07:44:33.011Z,10.48
2023-04-11T07:47:02.125Z,10.75
2023-04-11T07:49:31.355Z,9.70
2023-04-11T07:52:00.384Z,9.70
2023-04-11T07:54:30.311Z,9.25
2023-04-11T07:56:59.301Z,8.95
2023-04-11T07:59:29.770Z,9.23
2023-04-11T08:02:03.111Z,8.85
2023-04-11T08:04:37.122Z,9.30
2023-04-11T08:07:06.880Z,9.70
2023-04-11T08:09:35.864Z,8.75
2023-04-11T08:12:06.243Z,9.45
2023-04-11T08:14:37.200Z,9.18
2023-04-11T08:17:14.617Z,9.10
2023-04-11T08:19:50.414Z,9.48
2023-04-11T08:22:19.409Z,9.30
2023-04-11T08:24:48.372Z,9.43
2023-04-11T08:27:17.423Z,8.90
2023-04-11T08:29:48.384Z,9.30
2023-04-11T08:32:17.392Z,10.75
2023-04-11T08:34:49.821Z,9.48
2023-04-11T08:37:20.156Z,8.88
2023-04-11T08:39:49.242Z,9.02
2023-04-11T08:42:25.804Z,9.38
2023-04-11T08:44:58.369Z,8.67
2023-04-11T08:47:27.928Z,8.98
2023-04-11T08:49:57.680Z,7.70
2023-04-11T08:52:27.289Z,8.45
2023-04-11T08:54:56.688Z,8.05
2023-04-11T08:57:27.800Z,8.85
2023-04-11T09:00:07.330Z,7.40
2023-04-11T09:02:37.021Z,7.60
2023-04-11T09:05:07.452Z,6.90
2023-04-11T09:07:50.525Z,6.75
2023-04-11T09:10:20.384Z,7.88
2023-04-11T09:12:49.430Z,7.50
2023-04-11T09:15:26.596Z,7.68
2023-04-11T09:17:58.861Z,6.70
2023-04-11T09:20:31.227Z,7.50
2023-04-11T09:23:00.649Z,6.45
2023-04-11T09:25:29.779Z,6.70
2023-04-11T09:28:12.197Z,7.20
2023-04-11T09:30:51.290Z,6.63
2023-04-11T09:33:23.606Z,7.68
2023-04-11T09:35:54.615Z,6.38
2023-04-11T09:38:32.270Z,6.88
2023-04-11T09:41:03.388Z,6.88
2023-04-11T09:43:51.490Z,7.15
2023-04-11T09:48:52.627Z,7.03
2023-04-11T09:53:55.973Z,6.80
2023-04-11T09:56:26.703Z,7.05
2023-04-11T09:58:58.393Z,7.18
2023-04-11T10:01:29.388Z,7.20
2023-04-11T10:03:58.820Z,6.90
2023-04-11T10:06:34.967Z,6.95
2023-04-11T10:09:11.185Z,7.05
2023-04-11T10:11:43.987Z,6.32
2023-04-11T10:14:43.607Z,6.47
2023-04-11T10:17:20.574Z,6.90
2023-04-11T10:19:56.577Z,8.10
2023-04-11T10:23:08.886Z,6.55
2023-04-11T10:25:55.183Z,5.47
2023-04-11T10:28:39.257Z,6.38
2023-04-11T10:31:13.087Z,6.13
2023-04-11T10:34:14.621Z,6.55
2023-04-11T10:37:06.087Z,6.25
2023-04-11T10:40:10.399Z,6.53
2023-04-11T10:42:42.103Z,6.32
2023-04-11T10:45:24.382Z,6.68
2023-04-11T10:48:10.424Z,6.70
2023-04-11T10:50:44.563Z,7.18
2023-04-11T10:53:36.503Z,7.28
2023-04-11T10:56:06.434Z,7.25
2023-04-11T10:58:40.688Z,7.38
2023-04-11T11:01:31.216Z,7.47
2023-04-11T11:04:07.082Z,7.90
2023-04-11T11:06:47.286Z,7.20
2023-04-11T11:09:23.604Z,7.35
2023-04-11T11:12:09.843Z,8.35
2023-04-11T11:14:40.493Z,7.72
2023-04-11T11:17:09.988Z,6.60
2023-04-11T11:19:44.168Z,6.97
2023-04-11T11:22:17.974Z,6.63
2023-04-11T11:24:47.017Z,7.20
2023-04-11T11:27:23.798Z,7.57
2023-04-11T11:29:53.914Z,6.70
2023-04-11T11:32:25.373Z,7.60
2023-04-11T11:34:55.548Z,11.05
2023-04-11T11:37:26.353Z,7.82
2023-04-11T11:39:56.172Z,7.18
2023-04-11T11:42:26.112Z,6.90
2023-04-11T11:44:55.181Z,7.45
2023-04-11T11:47:25.833Z,7.22
2023-04-11T11:49:56.613Z,7.45
2023-04-11T11:52:34.630Z,7.10
2023-04-11T11:55:06.872Z,6.85
2023-04-11T11:57:38.535Z,6.72
2023-04-11T12:00:10.770Z,6.30
2023-04-11T12:02:42.440Z,7.03
2023-04-11T12:05:13.271Z,7.05
2023-04-11T12:07:43.793Z,6.88
2023-04-11T12:10:17.881Z,7.18
2023-04-11T12:12:53.357Z,6.53
2023-04-11T12:15:24.991Z,6.20
2023-04-11T12:17:55.285Z,6.93
2023-04-11T12:20:26.430Z,6.93
2023-04-11T12:22:57.323Z,7.50
2023-04-11T12:25:26.747Z,6.82
2023-04-11T12:27:56.102Z,6.50
2023-04-11T12:30:26.105Z,9.25
2023-04-11T12:32:56.348Z,6.90
2023-04-11T12:35:25.845Z,6.65
2023-04-11T12:37:56.592Z,7.47
2023-04-11T12:40:25.886Z,6.78
2023-04-11T12:42:57.323Z,7.50
2023-04-11T12:45:27.190Z,7.65
2023-04-11T12:47:56.238Z,6.88
2023-04-11T12:50:25.393Z,7.13
2023-04-11T12:52:55.693Z,6.50
2023-04-11T12:55:26.980Z,6.70
2023-04-11T12:57:56.110Z,6.88
2023-04-11T13:00:25.410Z,7.00
2023-04-11T13:02:54.634Z,6.57
2023-04-11T13:05:23.836Z,6.18
2023-04-11T13:07:53.490Z,6.43
2023-04-11T13:10:22.604Z,6.30
2023-04-11T13:12:58.528Z,6.30
2023-04-11T13:15:27.889Z,6.20
2023-04-11T13:17:57.123Z,5.72
2023-04-11T13:20:27.425Z,6.15
2023-04-11T13:22:56.484Z,5.90
2023-04-11T13:25:25.612Z,6.28
2023-04-11T13:27:56.595Z,5.68
2023-04-11T13:30:25.766Z,6.03
2023-04-11T13:32:54.764Z,6.30
2023-04-11T13:35:25.382Z,6.35
2023-04-11T13:37:55.134Z,5.95
2023-04-11T13:40:24.235Z,6.18
2023-04-11T13:42:54.548Z,7.22
2023-04-11T13:45:25.167Z,7.00
2023-04-11T13:47:54.191Z,7.35
2023-04-11T13:50:23.255Z,6.93
2023-04-11T13:52:52.252Z,7.05
2023-04-11T13:55:23.512Z,7.35
2023-04-11T13:57:52.535Z,7.13
2023-04-11T14:00:24.552Z,7.57
2023-04-11T14:02:53.772Z,7.07
2023-04-11T14:05:24.654Z,7.40
2023-04-11T14:07:53.667Z,7.22
2023-04-11T14:10:22.628Z,6.65
2023-04-11T14:12:51.654Z,6.75
2023-04-11T14:15:21.936Z,6.80
2023-04-11T14:17:52.473Z,6.57
2023-04-11T14:20:21.962Z,6.70
2023-04-11T14:22:51.037Z,6.80
2023-04-11T14:25:20.852Z,6.63
2023-04-11T14:27:50.025Z,6.53
2023-04-11T14:30:19.306Z,6.50
2023-04-11T14:32:48.456Z,7.43
2023-04-11T14:35:18.870Z,6.55
2023-04-11T14:37:48.981Z,7.65
2023-04-11T14:40:18.271Z,6.88
2023-04-11T14:42:47.294Z,7.78
2023-04-11T14:45:17.354Z,7.63
2023-04-11T14:47:46.421Z,7.00
2023-04-11T14:50:16.037Z,7.32
2023-04-11T14:52:48.218Z,7.38
2023-04-11T14:55:17.556Z,6.95
2023-04-11T14:57:49.304Z,6.70
2023-04-11T15:00:20.313Z,7.25
2023-04-11T15:02:52.462Z,6.78
2023-04-11T15:05:22.833Z,7.60
2023-04-11T15:07:54.228Z,7.68
2023-04-11T15:10:27.146Z,7.35
2023-04-11T15:12:56.241Z,7.75
2023-04-11T15:15:25.365Z,7.45
2023-04-11T15:18:23.873Z,7.63
2023-04-11T15:20:53.571Z,8.13
2023-04-11T15:23:27.577Z,8.90
2023-04-11T15:25:58.221Z,9.38
2023-04-11T15:28:31.534Z,7.15
2023-04-11T15:31:00.868Z,3.03
2023-04-11T15:33:31.652Z,1.90
2023-04-11T15:36:01.612Z,1.92
2023-04-11T15:38:34.752Z,2.38
2023-04-11T15:41:04.189Z,1.92
2023-04-11T15:43:33.330Z,2.40
2023-04-11T15:46:03.386Z,2.75
2023-04-11T15:48:32.451Z,2.38
2023-04-11T15:51:01.545Z,3.58
2023-04-11T15:53:32.243Z,2.05
2023-04-11T15:56:04.646Z,2.42
2023-04-11T15:58:34.114Z,1.83
2023-04-11T16:01:03.276Z,1.60
2023-04-11T16:03:32.897Z,1.50
2023-04-11T16:06:03.659Z,1.13
2023-04-11T16:08:34.368Z,1.45
2023-04-11T16:11:03.605Z,1.38
2023-04-11T16:13:32.592Z,1.30
2023-04-11T16:16:01.814Z,1.30
2023-04-11T16:18:31.546Z,1.30
2023-04-11T16:21:00.531Z,1.50
2023-04-11T16:23:29.658Z,1.40
2023-04-11T16:26:00.018Z,1.45
2023-04-11T16:28:29.095Z,1.73
2023-04-11T16:30:58.488Z,1.52
2023-04-11T16:33:27.653Z,2.10
2023-04-11T16:35:56.882Z,2.00
2023-04-11T16:38:25.958Z,1.77
2023-04-11T16:40:55.052Z,2.13
2023-04-11T16:43:25.801Z,3.17
2023-04-11T16:45:55.121Z,3.08
2023-04-11T16:48:29.210Z,3.25
2023-04-11T16:50:59.059Z,2.70
2023-04-11T16:53:28.237Z,2.50
2023-04-11T16:55:58.301Z,2.78
2023-04-11T16:58:28.886Z,3.53
2023-04-11T17:01:00.469Z,4.53
2023-04-11T17:03:30.063Z,6.18
2023-04-11T17:05:59.640Z,5.53
2023-04-11T17:08:28.745Z,6.60
2023-04-11T17:11:07.226Z,4.97
2023-04-11T17:13:38.085Z,6.22
2023-04-11T17:16:10.412Z,3.45
2023-04-11T17:18:39.531Z,4.75
2023-04-11T17:21:09.177Z,4.10
2023-04-11T17:23:56.586Z,9.73
2023-04-11T17:26:25.968Z,9.85
2023-04-11T17:28:57.160Z,11.23
2023-04-11T17:31:28.067Z,10.60
2023-04-11T17:33:57.759Z,9.63
2023-04-11T17:36:28.415Z,8.65
2023-04-11T17:38:57.580Z,7.55
2023-04-11T17:41:26.890Z,7.55
2023-04-11T17:43:58.118Z,9.43
2023-04-11T17:46:27.685Z,10.90
2023-04-11T17:48:56.800Z,10.30
2023-04-11T17:51:28.237Z,10.75
2023-04-11T17:54:00.671Z,10.63
2023-04-11T17:56:32.311Z,16.63
2023-04-11T17:59:02.738Z,5.28
2023-04-11T18:01:32.556Z,3.15
2023-04-11T18:04:02.671Z,4.30
2023-04-11T18:06:34.754Z,3.80
2023-04-11T18:09:04.377Z,3.60
2023-04-11T18:11:33.903Z,4.28
2023-04-11T18:14:04.556Z,4.93
2023-04-11T18:16:34.755Z,20.40
2023-04-11T18:19:06.161Z,17.60
2023-04-11T18:21:35.929Z,14.77
2023-04-11T18:24:06.955Z,15.13
2023-04-11T18:26:36.585Z,11.60
2023-04-11T18:29:07.013Z,12.43
2023-04-11T18:31:36.041Z,11.80
2023-04-11T18:34:06.958Z,9.45
2023-04-11T18:36:37.076Z,6.97
2023-04-11T18:39:06.247Z,10.68
2023-04-11T18:41:35.436Z,10.77
2023-04-11T18:44:08.329Z,10.57
2023-04-11T18:46:38.979Z,8.13
2023-04-11T18:49:08.353Z,9.15
2023-04-11T18:51:38.166Z,9.40
2023-04-11T18:54:07.361Z,6.82
2023-04-11T18:56:38.808Z,7.75
2023-04-11T18:59:10.524Z,9.52
2023-04-11T19:01:42.043Z,9.50
2023-04-11T19:04:12.179Z,8.60
2023-04-11T19:06:42.674Z,14.27
2023-04-11T19:09:11.939Z,14.00
2023-04-11T19:11:41.718Z,9.18
2023-04-11T19:14:13.006Z,9.60
2023-04-11T19:16:46.615Z,11.38
2023-04-11T19:19:16.294Z,9.63
2023-04-11T19:21:45.500Z,6.68
2023-04-11T19:24:14.821Z,7.95
2023-04-11T19:26:44.208Z,7.82
2023-04-11T19:29:14.727Z,7.55
2023-04-11T19:31:43.854Z,7.55
2023-04-11T19:34:13.210Z,5.97
2023-04-11T19:36:42.569Z,5.32
2023-04-11T19:39:11.739Z,4.53
2023-04-11T19:41:46.484Z,4.10
2023-04-11T19:44:20.082Z,3.88
2023-04-11T19:46:49.228Z,4.07
2023-04-11T19:49:18.210Z,3.70
2023-04-11T19:51:48.116Z,3.88
2023-04-11T19:54:19.182Z,3.58
2023-04-11T19:56:49.418Z,4.47
2023-04-11T19:59:20.167Z,3.72
2023-04-11T20:01:49.339Z,4.90
2023-04-11T20:04:18.722Z,4.68
2023-04-11T20:06:50.734Z,4.03
2023-04-11T20:09:19.813Z,4.95
2023-04-11T20:11:50.896Z,5.20
2023-04-11T20:14:21.710Z,5.78
2023-04-11T20:16:50.810Z,6.25
2023-04-11T20:19:21.228Z,6.65
2023-04-11T20:21:52.782Z,5.78
2023-04-11T20:24:21.874Z,5.50
2023-04-11T20:26:51.699Z,5.22
2023-04-11T20:29:24.718Z,4.88
2023-04-11T20:31:54.043Z,5.18
2023-04-11T20:34:23.459Z,4.75
2023-04-11T20:36:52.507Z,5.10
2023-04-11T20:39:21.695Z,5.20
2023-04-11T20:41:52.443Z,6.38
2023-04-11T20:44:26.174Z,5.68
2023-04-11T20:46:57.036Z,6.35
2023-04-11T20:49:28.444Z,6.28
2023-04-11T20:51:58.256Z,6.45
2023-04-11T20:54:27.832Z,7.47
2023-04-11T20:56:56.960Z,8.10
2023-04-11T20:59:29.975Z,7.78
2023-04-11T21:01:59.835Z,7.18
2023-04-11T21:04:29.621Z,6.93
2023-04-11T21:06:58.810Z,6.63
2023-04-11T21:09:27.814Z,6.15
2023-04-11T21:11:57.117Z,6.00
2023-04-11T21:14:27.552Z,7.32
2023-04-11T21:16:56.661Z,6.95
2023-04-11T21:19:26.087Z,6.32
2023-04-11T21:21:57.355Z,5.57
2023-04-11T21:24:27.157Z,5.93
2023-04-11T21:26:58.275Z,5.60
2023-04-11T21:29:28.863Z,5.80
2023-04-11T21:31:57.961Z,5.68
2023-04-11T21:34:26.990Z,4.72
2023-04-11T21:36:56.353Z,4.75
2023-04-11T21:39:25.399Z,4.82
2023-04-11T21:41:54.456Z,4.80
2023-04-11T21:44:23.531Z,5.03
2023-04-11T21:46:54.032Z,4.85
2023-04-11T21:49:23.044Z,4.60
2023-04-11T21:51:52.085Z,4.18
2023-04-11T21:54:21.269Z,3.95
2023-04-11T21:56:50.367Z,4.40
2023-04-11T21:59:19.359Z,4.63
2023-04-11T22:01:48.735Z,3.70
2023-04-11T22:04:19.362Z,4.13
2023-04-11T22:06:48.582Z,3.83
2023-04-11T22:09:19.808Z,3.78
2023-04-11T22:11:48.955Z,4.25
2023-04-11T22:14:18.210Z,4.10
2023-04-11T22:16:49.317Z,5.28
2023-04-11T22:19:20.821Z,5.22
2023-04-11T22:21:55.567Z,5.30
2023-04-11T22:24:31.148Z,4.53
2023-04-11T22:27:04.133Z,4.85
2023-04-11T22:29:34.580Z,4.25
2023-04-11T22:32:04.185Z,4.45
2023-04-11T22:34:35.876Z,4.40
2023-04-11T22:37:04.980Z,3.72
2023-04-11T22:39:34.486Z,4.63
2023-04-11T22:42:03.608Z,4.15
2023-04-11T22:44:32.625Z,5.07
2023-04-11T22:47:06.388Z,4.13
2023-04-11T22:49:40.471Z,4.47
2023-04-11T22:52:14.130Z,4.47
2023-04-11T22:54:44.026Z,5.05
2023-04-11T22:57:13.144Z,28.67
2023-04-11T22:59:42.165Z,10.77
2023-04-11T23:02:11.591Z,11.02
